Time;durP1;ratioP1;P1;durP2;ratioP2;P2;SDS_P1;SDS_P2;PMS_P1;PMS_P2;Temp;Humidity;BMP_temperature;BMP_pressure;BME280_temperature;BME280_humidity;BME280_pressure;Samples;Min_cycle;Max_cycle;Signal;HPM_P1;HPM_P2
2022/07/16 00:02:25;;;;;;;8.15;5.18;;;;;;;14.77;70.92;101981.44;5058523;28;20145;-80
2022/07/16 00:04:50;;;;;;;6.60;4.90;;;;;;;14.83;70.77;101994.22;5057636;28;20371;-82
2022/07/16 00:07:16;;;;;;;6.63;5.00;;;;;;;14.89;70.13;101992.56;5058061;28;20029;-81
2022/07/16 00:09:41;;;;;;;9.17;4.80;;;;;;;14.91;70.53;101989.63;5058127;28;20492;-80
2022/07/16 00:12:07;;;;;;;9.40;4.80;;;;;;;14.92;70.30;101986.66;5058216;28;20052;-79
2022/07/16 00:14:32;;;;;;;7.17;4.83;;;;;;;14.94;69.95;101990.00;5038117;28;20040;-79
2022/07/16 00:16:57;;;;;;;7.33;4.77;;;;;;;14.95;70.02;101988.13;5058283;28;20140;-79
2022/07/16 00:19:23;;;;;;;6.67;4.67;;;;;;;14.92;70.67;101988.53;5057880;28;20029;-82
2022/07/16 00:21:51;;;;;;;8.93;5.40;;;;;;;14.93;70.73;101993.81;5057940;28;20033;-80
2022/07/16 00:24:17;;;;;;;7.70;4.50;;;;;;;14.97;70.59;101996.94;5057263;28;20040;-80
2022/07/16 00:26:43;;;;;;;9.57;4.90;;;;;;;14.93;70.72;101982.03;5057251;28;20036;-80
2022/07/16 00:29:08;;;;;;;7.00;4.70;;;;;;;14.87;72.59;101967.38;5057722;28;20126;-80
2022/07/16 00:31:35;;;;;;;8.03;4.43;;;;;;;15.04;72.86;101989.59;5057640;28;20037;-81
2022/07/16 00:34:01;;;;;;;10.20;4.70;;;;;;;15.04;72.25;101984.13;5058127;28;20504;-78
2022/07/16 00:36:26;;;;;;;6.90;4.60;;;;;;;15.03;72.35;101979.72;5058045;28;20075;-78
2022/07/16 00:38:51;;;;;;;7.03;4.43;;;;;;;15.09;72.13;101980.75;5056973;28;20673;-78
2022/07/16 00:41:17;;;;;;;8.43;4.03;;;;;;;15.13;71.18;101982.00;5057897;28;20154;-82
2022/07/16 00:44:07;;;;;;;6.80;4.13;;;;;;;15.16;70.46;101981.56;5057461;28;21298;-79
2022/07/16 00:46:34;;;;;;;9.37;4.20;;;;;;;15.21;71.31;101981.75;5055907;28;20071;-80
2022/07/16 00:49:00;;;;;;;9.70;4.20;;;;;;;15.22;70.88;101979.84;5056853;28;20040;-81
2022/07/16 00:51:27;;;;;;;6.33;3.87;;;;;;;15.25;70.57;101984.91;5056011;28;20025;-78
2022/07/16 00:53:53;;;;;;;8.33;3.93;;;;;;;15.27;71.17;101985.53;5057602;28;20048;-81
2022/07/16 00:56:19;;;;;;;9.77;4.40;;;;;;;15.29;70.75;101986.97;5056724;28;20042;-81
2022/07/16 00:58:46;;;;;;;6.23;4.27;;;;;;;15.33;70.44;101984.66;5057167;28;20032;-78
2022/07/16 01:01:12;;;;;;;7.53;4.77;;;;;;;15.34;70.45;101983.63;5043775;28;20040;-78
2022/07/16 01:03:38;;;;;;;8.27;4.50;;;;;;;15.28;70.20;101979.84;5057514;28;20406;-81
2022/07/16 01:06:05;;;;;;;8.33;4.97;;;;;;;15.31;70.40;101973.97;5057074;28;20119;-80
2022/07/16 01:08:33;;;;;;;8.60;5.30;;;;;;;15.29;70.56;101976.06;5068755;28;20063;-83
2022/07/16 01:10:59;;;;;;;7.97;4.77;;;;;;;15.31;70.32;101984.88;5076748;28;20047;-81
2022/07/16 01:13:24;;;;;;;9.07;5.40;;;;;;;15.30;70.64;101979.63;5076990;28;20106;-79
2022/07/16 01:15:50;;;;;;;7.03;5.00;;;;;;;15.26;70.37;101976.50;5076846;28;20067;-79
2022/07/16 01:18:15;;;;;;;8.40;4.90;;;;;;;15.26;70.28;101979.22;5076976;28;20032;-81
2022/07/16 01:20:41;;;;;;;9.17;4.77;;;;;;;15.21;70.71;101961.81;5041154;28;20048;-80
2022/07/16 01:23:07;;;;;;;11.13;5.37;;;;;;;15.25;70.83;101963.91;5064793;28;20157;-78
2022/07/16 01:25:32;;;;;;;9.60;4.93;;;;;;;15.27;70.61;101972.72;5076594;28;20032;-81
2022/07/16 01:27:58;;;;;;;12.40;5.20;;;;;;;15.25;70.72;101966.63;5076950;28;20119;-82
2022/07/16 01:30:24;;;;;;;8.07;5.07;;;;;;;15.23;70.99;101963.28;5076569;28;20044;-82
2022/07/16 01:32:49;;;;;;;11.90;5.70;;;;;;;15.15;70.72;101958.91;5077260;28;20058;-83
2022/07/16 01:35:15;;;;;;;9.10;5.33;;;;;;;15.18;70.59;101974.00;5075817;28;20068;-82
2022/07/16 01:37:40;;;;;;;8.77;5.57;;;;;;;15.16;71.13;101979.69;5077095;28;20040;-81
2022/07/16 01:40:06;;;;;;;9.53;5.10;;;;;;;15.13;70.99;101965.63;5076481;28;20115;-82
2022/07/16 01:42:31;;;;;;;6.93;5.27;;;;;;;15.14;70.69;101978.22;5076139;28;20032;-81
2022/07/16 01:44:57;;;;;;;8.37;5.40;;;;;;;15.12;71.45;101974.84;5076480;28;20036;-82
2022/07/16 01:47:22;;;;;;;7.67;5.30;;;;;;;15.12;71.47;101969.41;5075910;28;20579;-81
2022/07/16 01:49:47;;;;;;;7.70;5.30;;;;;;;15.07;71.52;101967.31;5076610;28;20059;-80
2022/07/16 01:52:17;;;;;;;8.23;5.13;;;;;;;15.10;71.43;101976.97;5074590;28;20383;-81
2022/07/16 01:54:45;;;;;;;9.10;5.00;;;;;;;15.09;71.46;101975.28;5076538;28;20036;-79
2022/07/16 01:57:11;;;;;;;8.43;5.33;;;;;;;15.11;71.67;101973.16;5075869;28;20505;-79
2022/07/16 01:59:37;;;;;;;10.03;5.60;;;;;;;15.10;71.61;101976.97;5076574;28;20058;-78
2022/07/16 02:02:03;;;;;;;6.90;5.07;;;;;;;15.09;72.16;101978.03;5075959;28;20172;-78
2022/07/16 02:04:28;;;;;;;9.93;5.70;;;;;;;15.06;72.20;101976.56;5076305;28;20507;-77
2022/07/16 02:06:53;;;;;;;7.13;5.47;;;;;;;15.00;72.35;101970.06;5076490;28;20042;-77
2022/07/16 02:09:19;;;;;;;7.27;5.27;;;;;;;15.00;72.22;101966.47;5056998;28;20099;-78
2022/07/16 02:11:44;;;;;;;8.87;5.00;;;;;;;15.02;72.28;101967.94;5055319;28;20116;-78
2022/07/16 02:14:10;;;;;;;9.57;5.27;;;;;;;15.05;72.23;101974.03;5055413;28;20048;-79
2022/07/16 02:16:35;;;;;;;8.13;5.70;;;;;;;14.99;72.93;101965.66;5055759;28;20119;-78
2022/07/16 02:19:01;;;;;;;9.60;5.27;;;;;;;15.00;72.59;101967.34;5037882;28;20052;-77
2022/07/16 02:21:26;;;;;;;9.77;5.90;;;;;;;14.95;73.16;101963.59;5055135;28;20047;-78
2022/07/16 02:23:52;;;;;;;11.53;5.63;;;;;;;14.98;72.36;101968.59;5055977;28;20469;-78
2022/07/16 02:26:17;;;;;;;10.67;5.77;;;;;;;14.97;72.79;101962.31;5055245;28;20055;-79
2022/07/16 02:28:43;;;;;;;9.47;5.83;;;;;;;14.91;72.93;101956.88;5038135;28;20668;-78
2022/07/16 02:31:09;;;;;;;9.93;5.67;;;;;;;14.97;72.73;101966.91;5055206;28;20384;-81
2022/07/16 02:33:34;;;;;;;8.70;5.60;;;;;;;14.97;72.73;101967.78;5037814;28;20142;-79
2022/07/16 02:35:59;;;;;;;10.43;5.70;;;;;;;14.98;72.80;101963.97;5056265;28;20067;-80
2022/07/16 02:38:25;;;;;;;8.63;5.70;;;;;;;15.00;72.70;101961.88;5037826;28;20032;-82
2022/07/16 02:40:50;;;;;;;9.83;6.03;;;;;;;15.01;72.58;101957.25;5055602;28;20042;-79
2022/07/16 02:43:15;;;;;;;10.53;5.90;;;;;;;15.01;72.66;101957.25;5054937;28;20121;-81
2022/07/16 02:45:42;;;;;;;10.77;5.93;;;;;;;15.06;72.23;101971.09;5037254;28;20153;-82
2022/07/16 02:48:10;;;;;;;8.63;6.00;;;;;;;15.06;72.21;101960.19;5055386;28;20112;-79
2022/07/16 02:50:36;;;;;;;9.50;6.00;;;;;;;15.10;72.15;101966.06;5042892;28;20439;-79
2022/07/16 02:53:01;;;;;;;9.43;5.90;;;;;;;15.09;71.74;101953.47;5055150;28;20499;-80
2022/07/16 02:55:27;;;;;;;8.97;6.17;;;;;;;15.16;71.32;101952.41;5055468;28;20028;-79
2022/07/16 02:57:52;;;;;;;9.47;5.97;;;;;;;15.17;71.31;101955.94;5037529;28;20468;-82
2022/07/16 03:00:18;;;;;;;10.43;6.10;;;;;;;15.17;71.35;101950.50;5020715;28;20559;-84
2022/07/16 03:02:45;;;;;;;8.53;6.27;;;;;;;15.22;70.94;101958.88;5054756;28;20029;-79
2022/07/16 03:05:11;;;;;;;11.53;6.67;;;;;;;15.19;71.71;101949.22;5055123;28;20040;-80
2022/07/16 03:07:37;;;;;;;9.80;6.47;;;;;;;15.21;71.39;101949.00;5055741;28;20384;-83
2022/07/16 03:10:05;;;;;;;12.83;6.77;;;;;;;15.27;71.18;101959.06;5055819;28;20036;-82
2022/07/16 03:12:30;;;;;;;12.07;6.50;;;;;;;15.28;71.10;101960.72;5037155;28;20032;-82
2022/07/16 03:14:57;;;;;;;10.43;7.17;;;;;;;15.29;71.02;101961.59;5054717;28;20021;-81
2022/07/16 03:17:22;;;;;;;11.73;7.10;;;;;;;15.30;71.49;101964.09;5054928;28;20098;-80
2022/07/16 03:19:47;;;;;;;9.30;6.63;;;;;;;15.35;70.56;101964.28;5055486;28;20040;-81
2022/07/16 03:22:13;;;;;;;11.63;6.97;;;;;;;15.31;70.66;101960.31;5054921;28;20465;-77
2022/07/16 03:24:38;;;;;;;10.70;6.90;;;;;;;15.34;70.78;101965.34;5057442;28;20480;-79
2022/07/16 03:27:03;;;;;;;13.90;6.87;;;;;;;15.33;70.78;101969.13;5041019;28;20040;-82
2022/07/16 03:29:29;;;;;;;11.40;6.57;;;;;;;15.35;70.98;101967.03;5059058;28;20096;-81
2022/07/16 03:31:54;;;;;;;9.17;6.77;;;;;;;15.42;70.93;101971.59;5058676;28;20637;-79
2022/07/16 03:34:20;;;;;;;9.57;6.70;;;;;;;15.46;70.85;101981.88;5059121;28;20046;-78
2022/07/16 03:36:45;;;;;;;11.03;6.37;;;;;;;15.51;71.09;101983.97;5057752;28;20388;-82
2022/07/16 03:39:11;;;;;;;14.30;6.40;;;;;;;15.56;71.18;101986.03;5058933;28;20032;-79
2022/07/16 03:41:38;;;;;;;11.43;6.10;;;;;;;15.60;71.54;101990.84;5040379;28;20385;-80
2022/07/16 03:44:06;;;;;;;7.87;5.67;;;;;;;15.64;71.82;101994.81;5040958;28;20058;-80
2022/07/16 03:46:32;;;;;;;9.27;5.93;;;;;;;15.66;71.93;101991.88;5058499;28;20098;-79
2022/07/16 03:48:58;;;;;;;8.13;5.90;;;;;;;15.64;71.87;101981.16;5059175;28;20040;-79
2022/07/16 03:51:24;;;;;;;9.87;5.77;;;;;;;15.69;72.10;101989.56;5040263;28;20146;-81
2022/07/16 03:53:50;;;;;;;9.37;5.97;;;;;;;15.72;72.40;102006.56;5058553;28;20060;-80
2022/07/16 03:56:16;;;;;;;9.67;6.40;;;;;;;15.70;72.36;102001.31;5058292;28;20132;-80
2022/07/16 03:58:41;;;;;;;8.93;6.27;;;;;;;15.68;72.44;102006.16;5058367;28;20063;-78
2022/07/16 04:01:07;;;;;;;8.67;5.73;;;;;;;15.67;72.74;101999.84;5058225;28;20753;-80
2022/07/16 04:03:34;;;;;;;8.60;6.00;;;;;;;15.66;73.38;102009.09;5058422;28;20388;-79
2022/07/16 04:06:00;;;;;;;7.83;5.60;;;;;;;15.64;73.69;102013.94;5058725;28;20044;-80
2022/07/16 04:08:25;;;;;;;10.67;6.00;;;;;;;15.63;73.86;102006.81;5058251;28;20124;-82
2022/07/16 04:10:51;;;;;;;10.33;5.90;;;;;;;15.60;74.31;102018.16;5078258;28;20040;-81
2022/07/16 04:13:18;;;;;;;9.67;5.67;;;;;;;15.56;75.01;102003.28;5078032;28;20036;-81
2022/07/16 04:15:43;;;;;;;10.30;5.87;;;;;;;15.53;75.64;102012.72;5078323;28;20050;-79
2022/07/16 04:18:09;;;;;;;8.93;5.60;;;;;;;15.51;76.07;102008.53;5077921;28;20040;-79
2022/07/16 04:20:34;;;;;;;8.40;5.67;;;;;;;15.48;76.29;102012.53;5076828;28;20125;-79
2022/07/16 04:23:00;;;;;;;9.37;5.70;;;;;;;15.42;77.00;102007.09;5077184;28;20113;-79
2022/07/16 04:25:25;;;;;;;9.47;5.70;;;;;;;15.44;77.56;102026.84;5078430;28;20077;-78
2022/07/16 04:27:51;;;;;;;9.97;5.20;;;;;;;15.42;77.80;102018.03;5076263;28;20122;-81
2022/07/16 04:30:16;;;;;;;10.37;5.37;;;;;;;15.43;78.49;102026.00;5076577;28;20051;-79
2022/07/16 04:32:42;;;;;;;9.43;5.53;;;;;;;15.39;79.01;102013.81;5078297;28;20032;-80
2022/07/16 04:35:09;;;;;;;10.23;5.47;;;;;;;15.38;79.61;102022.25;5077942;28;20093;-83
2022/07/16 04:37:35;;;;;;;9.03;5.73;;;;;;;15.39;80.12;102026.66;5076785;28;20040;-79
2022/07/16 04:40:02;;;;;;;8.43;5.20;;;;;;;15.33;80.83;102015.53;5078167;28;21319;-80
2022/07/16 04:42:28;;;;;;;10.93;6.20;;;;;;;15.34;81.83;102017.22;5077187;28;20032;-78
2022/07/16 04:44:53;;;;;;;10.00;5.70;;;;;;;15.33;82.40;102029.19;5078147;28;20336;-79
2022/07/16 04:47:19;;;;;;;10.47;6.27;;;;;;;15.35;82.97;102031.69;5077501;28;20031;-80
2022/07/16 04:49:44;;;;;;;10.47;6.20;;;;;;;15.33;83.65;102026.47;5077253;28;20063;-78
2022/07/16 04:52:09;;;;;;;12.17;6.50;;;;;;;15.41;84.73;102039.03;5077043;28;20432;-78
2022/07/16 04:54:35;;;;;;;11.10;6.20;;;;;;;15.42;85.04;102043.47;5077714;28;20181;-80
2022/07/16 04:57:00;;;;;;;10.27;6.10;;;;;;;15.40;85.56;102037.34;5076123;28;20028;-80
2022/07/16 04:59:26;;;;;;;15.23;7.03;;;;;;;15.49;86.22;102047.00;5076759;28;20039;-79
2022/07/16 05:01:52;;;;;;;11.47;6.63;;;;;;;15.54;86.92;102046.34;5076568;28;20039;-80
2022/07/16 05:04:17;;;;;;;13.47;6.60;;;;;;;15.58;86.81;102052.22;5077739;28;20032;-78
2022/07/16 05:06:43;;;;;;;11.20;6.60;;;;;;;15.62;87.25;102059.75;5077200;28;20069;-80
2022/07/16 05:09:09;;;;;;;8.47;6.10;;;;;;;15.66;88.50;102061.00;5061972;28;20064;-78
2022/07/16 05:11:35;;;;;;;9.77;5.63;;;;;;;15.72;88.10;102062.06;5057412;28;20056;-78
2022/07/16 05:14:00;;;;;;;11.30;6.40;;;;;;;15.78;88.73;102060.34;5056904;28;20110;-79
2022/07/16 05:16:26;;;;;;;11.03;6.07;;;;;;;15.83;88.58;102063.31;5045019;28;20036;-79
2022/07/16 05:18:51;;;;;;;13.73;6.40;;;;;;;15.88;88.63;102060.72;5027510;28;20044;-80
2022/07/16 05:21:17;;;;;;;10.80;6.33;;;;;;;15.95;88.89;102061.56;5039020;28;20039;-82
2022/07/16 05:23:43;;;;;;;10.00;6.10;;;;;;;15.95;89.08;102056.09;5038167;28;20074;-81
2022/07/16 05:26:09;;;;;;;10.53;6.17;;;;;;;16.04;88.97;102070.34;5056556;28;20057;-80
2022/07/16 05:28:36;;;;;;;9.83;6.00;;;;;;;16.10;89.10;102065.88;5038380;28;20217;-80
2022/07/16 05:31:02;;;;;;;10.03;5.67;;;;;;;16.12;89.22;102069.25;5056924;28;20187;-78
2022/07/16 05:33:27;;;;;;;10.93;5.80;;;;;;;16.12;89.24;102063.78;5055938;28;20044;-79
2022/07/16 05:35:52;;;;;;;10.83;5.67;;;;;;;16.32;89.76;102071.84;5044150;28;20101;-79
2022/07/16 05:38:18;;;;;;;11.87;5.17;;;;;;;16.33;88.77;102077.09;5037831;28;20468;-81
2022/07/16 05:40:43;;;;;;;8.13;5.40;;;;;;;16.36;88.30;102068.47;5056475;28;20112;-79
2022/07/16 05:43:09;;;;;;;9.77;5.30;;;;;;;16.46;87.50;102078.91;5056020;28;20535;-79
2022/07/16 05:45:34;;;;;;;8.77;5.33;;;;;;;16.47;87.42;102074.25;5038981;28;20041;-80
2022/07/16 05:48:00;;;;;;;9.70;5.30;;;;;;;16.47;87.36;102077.84;5056090;28;20050;-80
2022/07/16 05:50:25;;;;;;;10.80;5.00;;;;;;;16.58;87.02;102079.03;5056494;28;20028;-82
2022/07/16 05:52:54;;;;;;;8.70;4.93;;;;;;;16.62;87.46;102083.00;5055942;28;20032;-80
2022/07/16 05:55:19;;;;;;;5.40;4.23;;;;;;;16.68;86.64;102086.75;5056305;28;20130;-80
2022/07/16 05:57:45;;;;;;;9.30;3.97;;;;;;;16.80;85.28;102092.34;5055550;28;20127;-78
2022/07/16 06:00:11;;;;;;;9.53;3.60;;;;;;;16.80;84.32;102078.66;5056382;28;20497;-80
2022/07/16 06:02:38;;;;;;;7.60;3.80;;;;;;;16.90;84.20;102089.97;5055808;28;20423;-80
2022/07/16 06:05:03;;;;;;;8.77;2.90;;;;;;;16.93;82.49;102091.41;5038240;28;20144;-84
2022/07/16 06:07:29;;;;;;;5.67;3.10;;;;;;;16.87;82.79;102083.00;5055586;28;20495;-78
2022/07/16 06:09:54;;;;;;;6.23;3.10;;;;;;;17.04;82.44;102098.91;5056196;28;20071;-78
2022/07/16 06:12:20;;;;;;;6.97;3.50;;;;;;;16.96;82.61;102094.53;5053530;28;20021;-77
2022/07/16 06:14:46;;;;;;;7.83;3.30;;;;;;;17.08;82.79;102102.88;5072158;28;20032;-78
2022/07/16 06:17:11;;;;;;;5.40;3.00;;;;;;;17.11;82.62;102107.91;5073304;28;20024;-78
2022/07/16 06:19:41;;;;;;;6.30;3.43;;;;;;;17.09;81.55;102104.53;5052824;28;20070;-78
2022/07/16 06:22:07;;;;;;;6.80;3.50;;;;;;;17.23;81.26;102113.47;5071726;28;20076;-78
2022/07/16 06:24:33;;;;;;;6.83;3.57;;;;;;;17.40;80.30;102104.66;5072124;28;20103;-78
2022/07/16 06:26:58;;;;;;;6.23;3.37;;;;;;;17.45;80.17;102119.34;5071088;28;20445;-79
2022/07/16 06:29:24;;;;;;;5.97;3.43;;;;;;;17.55;79.87;102113.34;5071158;28;20024;-78
2022/07/16 06:31:49;;;;;;;5.37;3.00;;;;;;;17.67;78.07;102117.00;5055148;28;20056;-78
2022/07/16 06:34:14;;;;;;;5.83;2.80;;;;;;;17.76;77.28;102119.44;5039368;28;20040;-78
2022/07/16 06:36:40;;;;;;;5.63;2.80;;;;;;;17.64;77.77;102128.44;5055971;28;20039;-77
2022/07/16 06:39:05;;;;;;;4.80;2.70;;;;;;;17.77;76.71;102130.16;5054441;28;20032;-79
2022/07/16 06:41:31;;;;;;;3.17;2.40;;;;;;;17.80;76.15;102134.34;5073180;28;20043;-78
2022/07/16 06:43:57;;;;;;;4.60;2.53;;;;;;;17.88;75.27;102140.38;5054890;28;20033;-78
2022/07/16 06:46:22;;;;;;;4.63;2.23;;;;;;;18.05;74.94;102137.88;5072013;28;20376;-78
2022/07/16 06:48:47;;;;;;;4.07;2.20;;;;;;;18.14;73.88;102148.53;5072184;28;20032;-78
2022/07/16 06:51:13;;;;;;;4.40;2.07;;;;;;;18.25;71.21;102136.78;5072818;28;20035;-77
2022/07/16 06:53:38;;;;;;;5.43;2.20;;;;;;;18.41;70.78;102142.69;5054392;28;20027;-78
2022/07/16 06:56:06;;;;;;;3.80;2.10;;;;;;;18.37;70.07;102143.16;5072800;28;20415;-78
2022/07/16 06:58:32;;;;;;;5.03;2.00;;;;;;;18.42;70.31;102149.84;5072833;28;20119;-78
2022/07/16 07:00:57;;;;;;;6.03;1.93;;;;;;;18.51;68.48;102156.69;5076406;28;20037;-78
2022/07/16 07:03:22;;;;;;;4.17;2.10;;;;;;;18.53;66.59;102165.50;5074683;28;20032;-78
2022/07/16 07:05:48;;;;;;;4.10;2.10;;;;;;;18.57;67.51;102169.47;5075441;28;20063;-77
2022/07/16 07:08:14;;;;;;;4.90;1.77;;;;;;;18.62;66.38;102166.88;5075575;28;20090;-78
2022/07/16 07:10:39;;;;;;;4.23;1.87;;;;;;;18.86;65.20;102176.00;5056149;28;20024;-78
2022/07/16 07:13:04;;;;;;;6.03;1.98;;;;;;;18.66;64.31;102172.72;5073944;28;20040;-77
2022/07/16 07:15:30;;;;;;;3.37;1.60;;;;;;;18.64;63.98;102180.34;5074876;28;20468;-78
2022/07/16 07:17:55;;;;;;;3.15;1.60;;;;;;;18.65;62.97;102182.84;5057580;28;20403;-78
2022/07/16 07:20:20;;;;;;;5.47;1.50;;;;;;;18.70;61.50;102185.75;5055710;28;20455;-79
2022/07/16 07:22:46;;;;;;;4.65;1.70;;;;;;;18.69;61.17;102185.97;5075879;28;20029;-84
2022/07/16 07:25:11;;;;;;;3.65;1.50;;;;;;;18.81;62.21;102194.25;5058296;28;20056;-78
2022/07/16 07:27:36;;;;;;;3.53;1.70;;;;;;;18.89;62.91;102204.94;5073163;28;20033;-78
2022/07/16 07:30:04;;;;;;;3.55;1.60;;;;;;;18.96;61.41;102196.56;5061404;28;20040;-80
2022/07/16 07:32:29;;;;;;;3.05;1.60;;;;;;;18.99;59.78;102198.88;5058343;28;20048;-82
2022/07/16 07:34:54;;;;;;;2.08;1.40;;;;;;;18.73;59.65;102195.44;5057975;28;20040;-79
2022/07/16 07:37:20;;;;;;;5.50;1.63;;;;;;;18.86;59.53;102199.88;5058288;28;20049;-81
2022/07/16 07:39:45;;;;;;;2.90;1.53;;;;;;;18.88;59.23;102203.25;5058334;28;20040;-81
2022/07/16 07:42:12;;;;;;;2.28;1.70;;;;;;;19.00;58.77;102206.88;5062113;28;20036;-77
2022/07/16 07:44:38;;;;;;;3.55;1.52;;;;;;;19.06;58.67;102214.16;5075476;28;20020;-77
2022/07/16 07:47:03;;;;;;;4.38;1.63;;;;;;;19.08;58.29;102218.59;5076139;28;20036;-77
2022/07/16 07:49:28;;;;;;;3.30;1.60;;;;;;;19.08;57.01;102210.34;5074204;28;20485;-77
2022/07/16 07:51:54;;;;;;;4.30;1.33;;;;;;;19.26;57.08;102218.50;5057362;28;20025;-78
2022/07/16 07:54:20;;;;;;;3.05;1.48;;;;;;;19.27;56.87;102219.31;5057604;28;20094;-76
2022/07/16 07:56:45;;;;;;;4.63;1.90;;;;;;;19.27;57.19;102220.19;5075592;28;20024;-77
2022/07/16 07:59:10;;;;;;;2.63;1.50;;;;;;;19.38;57.76;102207.53;5074912;28;20029;-77
2022/07/16 08:01:36;;;;;;;4.00;1.50;;;;;;;19.35;57.53;102208.00;5057872;28;20036;-77
2022/07/16 08:04:01;;;;;;;3.05;1.60;;;;;;;19.36;57.66;102215.16;5056178;28;20023;-77
2022/07/16 08:06:26;;;;;;;4.60;1.60;;;;;;;19.48;56.44;102226.19;5074545;28;20449;-77
2022/07/16 08:08:52;;;;;;;5.35;1.70;;;;;;;19.52;57.03;102219.13;5087903;28;20044;-77
2022/07/16 08:11:17;;;;;;;4.55;1.60;;;;;;;19.62;57.11;102224.03;5093190;28;20030;-77
2022/07/16 08:13:43;;;;;;;7.30;1.60;;;;;;;19.71;57.99;102223.41;5095792;28;20032;-77
2022/07/16 08:16:08;;;;;;;5.75;1.80;;;;;;;19.84;57.41;102221.53;5095037;28;20480;-77
2022/07/16 08:18:34;;;;;;;4.47;1.88;;;;;;;20.19;56.78;102224.19;5076596;28;20040;-77
2022/07/16 08:21:00;;;;;;;4.50;1.80;;;;;;;20.25;56.80;102227.94;5095133;28;20035;-77
2022/07/16 08:26:08;;;;;;;8.68;2.05;;;;;;;20.34;55.85;102244.88;5095320;28;20384;-78
2022/07/16 08:28:34;;;;;;;3.83;1.60;;;;;;;20.19;54.40;102242.66;5095042;28;20028;-77
2022/07/16 08:30:59;;;;;;;3.08;1.80;;;;;;;19.93;54.05;102250.34;5093119;28;20087;-78
2022/07/16 08:33:24;;;;;;;2.88;1.70;;;;;;;19.83;55.28;102258.38;5094909;28;20028;-78
2022/07/16 08:35:50;;;;;;;4.97;1.60;;;;;;;20.05;54.93;102253.91;5075316;28;20110;-78
2022/07/16 08:38:16;;;;;;;4.53;1.77;;;;;;;20.28;56.36;102254.94;5094474;28;20036;-77
2022/07/16 08:40:42;;;;;;;5.40;1.70;;;;;;;20.54;53.79;102252.72;5094704;28;20115;-83
2022/07/16 08:43:08;;;;;;;2.85;1.38;;;;;;;20.93;51.96;102261.22;5092747;28;20452;-77
2022/07/16 08:45:36;;;;;;;4.97;1.40;;;;;;;21.20;51.68;102277.09;5086640;28;20036;-78
2022/07/16 08:48:02;;;;;;;4.63;1.45;;;;;;;21.40;49.97;102271.09;5092297;28;20024;-78
2022/07/16 08:50:28;;;;;;;2.58;1.55;;;;;;;21.58;49.36;102267.28;5092858;28;20036;-78
2022/07/16 08:52:54;;;;;;;2.97;1.67;;;;;;;21.83;50.95;102286.16;5095134;28;20032;-77
2022/07/16 08:55:24;;;;;;;3.15;1.27;;;;;;;22.13;48.01;102276.66;5078925;28;20126;-80
2022/07/16 08:57:49;;;;;;;2.67;1.58;;;;;;;22.34;48.14;102277.78;5077413;28;20419;-78
2022/07/16 09:00:17;;;;;;;4.00;1.23;;;;;;;22.40;47.34;102279.53;5077164;28;20040;-79
2022/07/16 09:02:45;;;;;;;4.90;1.40;;;;;;;22.56;46.86;102276.94;5077251;28;20059;-79
2022/07/16 09:05:10;;;;;;;7.40;1.85;;;;;;;22.90;45.83;102285.91;5077028;28;20036;-80
2022/07/16 09:07:36;;;;;;;2.65;1.15;;;;;;;23.12;45.21;102282.25;5076870;28;20057;-82
2022/07/16 09:10:03;;;;;;;3.58;1.40;;;;;;;23.63;43.22;102290.16;5076788;28;20098;-81
2022/07/16 09:12:42;;;;;;;4.18;1.45;;;;;;;23.81;45.59;102290.84;5076975;28;20044;-81
2022/07/16 09:15:25;;;;;;;3.47;1.50;;;;;;;24.02;42.81;102297.38;5077013;28;20039;-80
2022/07/16 09:18:15;;;;;;;2.88;1.42;;;;;;;24.28;44.68;102299.16;5077513;28;20057;-81
2022/07/16 09:20:45;;;;;;;2.70;1.27;;;;;;;24.14;43.90;102286.06;5071620;28;20039;-83
2022/07/16 09:23:27;;;;;;;2.78;1.40;;;;;;;24.03;43.45;102293.47;5076207;28;20052;-80
2022/07/16 09:25:59;;;;;;;4.03;1.40;;;;;;;24.04;42.78;102293.22;5076837;28;20070;-81
2022/07/16 09:28:36;;;;;;;7.20;1.55;;;;;;;24.11;42.22;102304.03;5076736;28;20044;-82
2022/07/16 09:31:02;;;;;;;3.72;1.30;;;;;;;24.30;42.56;102306.38;5077142;28;20046;-81
2022/07/16 09:33:27;;;;;;;5.43;1.38;;;;;;;24.14;42.18;102299.91;5076828;28;20032;-80
2022/07/16 09:36:05;;;;;;;4.85;1.40;;;;;;;24.35;43.57;102307.22;5077078;28;20032;-80
2022/07/16 09:38:53;;;;;;;3.65;1.50;;;;;;;24.51;44.15;102304.53;5083324;28;20024;-78
2022/07/16 09:41:20;;;;;;;3.33;1.42;;;;;;;24.37;41.97;102309.72;5087798;28;20101;-77
2022/07/16 09:43:46;;;;;;;3.28;1.40;;;;;;;24.54;41.12;102309.53;5080563;28;20026;-79
2022/07/16 09:46:18;;;;;;;3.05;1.33;;;;;;;24.41;41.57;102303.38;5076520;28;20038;-78
2022/07/16 09:48:44;;;;;;;3.95;1.58;;;;;;;24.21;41.93;102312.44;5076235;28;20079;-80
2022/07/16 09:51:26;;;;;;;2.53;1.30;;;;;;;24.01;41.94;102321.44;5076663;28;20039;-79
2022/07/16 09:53:54;;;;;;;4.85;1.30;;;;;;;23.54;43.61;102327.69;5076418;28;20524;-81
2022/07/16 09:56:24;;;;;;;2.33;1.25;;;;;;;23.53;43.71;102331.59;5075339;28;20136;-80
2022/07/16 09:58:52;;;;;;;3.35;1.65;;;;;;;23.37;42.00;102325.06;5076458;28;20798;-79
2022/07/16 10:01:19;;;;;;;5.63;1.90;;;;;;;24.10;43.49;102330.91;5076782;28;20096;-80
2022/07/16 10:03:46;;;;;;;5.43;1.70;;;;;;;24.38;42.12;102317.75;5076530;28;20044;-83
2022/07/16 10:06:12;;;;;;;4.88;1.42;;;;;;;24.21;41.50;102323.50;5076272;28;20618;-79
2022/07/16 10:08:39;;;;;;;37.25;2.95;;;;;;;24.40;42.41;102326.66;5074990;28;20570;-79
2022/07/16 10:11:05;;;;;;;2.63;1.40;;;;;;;23.98;42.11;102335.81;5076539;28;20138;-80
2022/07/16 10:13:32;;;;;;;3.88;1.30;;;;;;;23.55;42.05;102337.69;5076460;28;20032;-79
2022/07/16 10:15:57;;;;;;;5.10;1.50;;;;;;;23.54;40.64;102322.16;5076654;28;20062;-78
2022/07/16 10:18:31;;;;;;;3.70;1.48;;;;;;;23.51;41.62;102331.81;5076102;28;20502;-79
2022/07/16 10:21:08;;;;;;;4.47;1.63;;;;;;;23.20;43.33;102325.19;5076649;28;20036;-79
2022/07/16 10:23:35;;;;;;;5.20;1.50;;;;;;;22.81;41.45;102333.59;5074591;28;20039;-78
2022/07/16 10:26:05;;;;;;;8.18;1.75;;;;;;;23.07;43.87;102343.00;5076302;28;20456;-81
2022/07/16 10:28:39;;;;;;;3.35;1.30;;;;;;;23.48;44.88;102339.84;5083531;28;20024;-78
2022/07/16 10:31:30;;;;;;;4.15;1.30;;;;;;;23.53;40.95;102343.47;5089257;28;20103;-78
2022/07/16 10:34:14;;;;;;;3.90;1.20;;;;;;;23.04;42.02;102344.34;5092202;28;20032;-78
2022/07/16 10:36:46;;;;;;;6.65;1.40;;;;;;;22.62;42.95;102342.22;5093391;28;20024;-76
2022/07/16 10:39:15;;;;;;;3.03;1.30;;;;;;;22.32;44.19;102348.97;5076194;28;20398;-78
2022/07/16 10:42:06;;;;;;;3.55;1.63;;;;;;;22.32;44.21;102350.91;5094240;28;20371;-77
2022/07/16 10:44:45;;;;;;;3.75;1.35;;;;;;;22.76;45.36;102343.50;5085528;28;20073;-77
2022/07/16 10:47:11;;;;;;;4.35;1.40;;;;;;;22.50;41.95;102345.09;5091976;28;20020;-78
2022/07/16 10:49:36;;;;;;;3.97;1.23;;;;;;;22.47;41.15;102344.78;5084001;28;20028;-78
2022/07/16 10:52:16;;;;;;;2.55;1.50;;;;;;;22.37;42.17;102357.34;5087696;28;20028;-77
2022/07/16 10:54:59;;;;;;;3.17;1.38;;;;;;;22.96;41.69;102350.34;5091484;28;20024;-79
2022/07/16 10:57:36;;;;;;;2.58;1.25;;;;;;;22.94;40.36;102363.56;5088431;28;20525;-78
2022/07/16 11:00:05;;;;;;;4.47;1.77;;;;;;;22.88;42.40;102359.09;5092607;28;20069;-77
2022/07/16 11:02:37;;;;;;;4.50;1.40;;;;;;;22.33;41.12;102369.97;5090897;28;20051;-77
2022/07/16 11:05:02;;;;;;;2.45;1.42;;;;;;;22.16;41.33;102366.41;5090155;28;20036;-78
2022/07/16 11:07:33;;;;;;;2.45;1.30;;;;;;;22.66;42.21;102357.19;5088881;28;20092;-77
2022/07/16 11:09:59;;;;;;;4.07;1.40;;;;;;;23.04;40.73;102360.94;5092327;28;20044;-78
2022/07/16 11:12:32;;;;;;;4.47;1.58;;;;;;;23.05;41.67;102365.38;5092877;28;20028;-78
2022/07/16 11:15:00;;;;;;;3.10;1.15;;;;;;;22.86;39.29;102358.50;5093394;28;20476;-78
2022/07/16 11:17:28;;;;;;;3.15;1.35;;;;;;;22.76;40.62;102350.94;5092810;28;20051;-78
2022/07/16 11:19:59;;;;;;;7.07;1.85;;;;;;;22.56;41.49;102368.94;5092076;28;20039;-77
2022/07/16 11:22:27;;;;;;;59.75;4.68;;;;;;;22.70;42.24;102366.63;5090439;28;20032;-78
2022/07/16 11:24:55;;;;;;;5.93;1.67;;;;;;;22.66;42.34;102370.16;5084273;28;20058;-78
2022/07/16 11:27:32;;;;;;;4.85;1.40;;;;;;;23.09;41.86;102363.75;5090744;28;20072;-82